sensor_id;sensor_type;location;lat;lon;timestamp;temperature;humidity
68691;DHT22;55675;49.588;8.640;2023-03-23T00:01:17;15.80;67.90
68691;DHT22;55675;49.588;8.640;2023-03-23T00:03:47;15.90;68.10
68691;DHT22;55675;49.588;8.640;2023-03-23T00:06:13;15.80;68.10
68691;DHT22;55675;49.588;8.640;2023-03-23T00:08:42;15.80;68.20
68691;DHT22;55675;49.588;8.640;2023-03-23T00:11:12;15.80;68.40
68691;DHT22;55675;49.588;8.640;2023-03-23T00:13:40;15.80;68.20
68691;DHT22;55675;49.588;8.640;2023-03-23T00:16:06;15.80;68.20
68691;DHT22;55675;49.588;8.640;2023-03-23T00:18:49;15.80;68.10
68691;DHT22;55675;49.588;8.640;2023-03-23T00:21:18;15.70;68.10
68691;DHT22;55675;49.588;8.640;2023-03-23T00:23:43;15.70;67.70
68691;DHT22;55675;49.588;8.640;2023-03-23T00:26:10;15.70;67.60
68691;DHT22;55675;49.588;8.640;2023-03-23T00:28:36;15.80;67.70
68691;DHT22;55675;49.588;8.640;2023-03-23T00:31:03;15.80;67.40
68691;DHT22;55675;49.588;8.640;2023-03-23T00:33:30;15.80;67.30
68691;DHT22;55675;49.588;8.640;2023-03-23T00:35:55;15.80;67.50
68691;DHT22;55675;49.588;8.640;2023-03-23T00:38:21;15.80;66.90
68691;DHT22;55675;49.588;8.640;2023-03-23T00:40:47;15.80;66.60
68691;DHT22;55675;49.588;8.640;2023-03-23T00:43:13;15.80;66.60
68691;DHT22;55675;49.588;8.640;2023-03-23T00:45:39;15.80;66.30
68691;DHT22;55675;49.588;8.640;2023-03-23T00:48:05;15.90;66.20
68691;DHT22;55675;49.588;8.640;2023-03-23T00:50:30;15.80;65.70
68691;DHT22;55675;49.588;8.640;2023-03-23T00:52:56;15.80;66.00
68691;DHT22;55675;49.588;8.640;2023-03-23T00:55:22;15.80;66.10
68691;DHT22;55675;49.588;8.640;2023-03-23T00:57:48;15.80;66.10
68691;DHT22;55675;49.588;8.640;2023-03-23T01:00:15;15.80;66.10
68691;DHT22;55675;49.588;8.640;2023-03-23T01:02:41;15.80;66.00
68691;DHT22;55675;49.588;8.640;2023-03-23T01:05:09;15.80;66.00
68691;DHT22;55675;49.588;8.640;2023-03-23T01:07:35;15.80;66.00
68691;DHT22;55675;49.588;8.640;2023-03-23T01:10:00;15.80;66.00
68691;DHT22;55675;49.588;8.640;2023-03-23T01:12:27;15.80;66.00
68691;DHT22;55675;49.588;8.640;2023-03-23T01:14:52;15.80;66.00
68691;DHT22;55675;49.588;8.640;2023-03-23T01:17:17;15.80;66.40
68691;DHT22;55675;49.588;8.640;2023-03-23T01:19:44;15.80;66.50
68691;DHT22;55675;49.588;8.640;2023-03-23T01:22:09;15.80;66.60
68691;DHT22;55675;49.588;8.640;2023-03-23T01:24:35;15.80;66.60
68691;DHT22;55675;49.588;8.640;2023-03-23T01:27:00;15.80;66.60
68691;DHT22;55675;49.588;8.640;2023-03-23T01:29:34;15.80;66.80
68691;DHT22;55675;49.588;8.640;2023-03-23T01:32:00;15.70;66.80
68691;DHT22;55675;49.588;8.640;2023-03-23T01:34:25;15.70;66.70
68691;DHT22;55675;49.588;8.640;2023-03-23T01:36:51;15.70;66.50
68691;DHT22;55675;49.588;8.640;2023-03-23T01:39:16;15.70;66.40
68691;DHT22;55675;49.588;8.640;2023-03-23T01:41:42;15.70;66.20
68691;DHT22;55675;49.588;8.640;2023-03-23T01:45:02;15.70;66.30
68691;DHT22;55675;49.588;8.640;2023-03-23T01:46:53;15.70;66.10
68691;DHT22;55675;49.588;8.640;2023-03-23T01:49:27;15.70;66.40
68691;DHT22;55675;49.588;8.640;2023-03-23T01:51:59;15.70;66.40
68691;DHT22;55675;49.588;8.640;2023-03-23T01:54:26;15.70;66.50
68691;DHT22;55675;49.588;8.640;2023-03-23T01:56:56;15.60;66.60
68691;DHT22;55675;49.588;8.640;2023-03-23T01:59:24;15.70;66.60
68691;DHT22;55675;49.588;8.640;2023-03-23T02:01:51;15.60;67.20
68691;DHT22;55675;49.588;8.640;2023-03-23T02:04:17;15.60;66.40
68691;DHT22;55675;49.588;8.640;2023-03-23T02:06:43;15.60;66.60
68691;DHT22;55675;49.588;8.640;2023-03-23T02:09:10;15.60;66.60
68691;DHT22;55675;49.588;8.640;2023-03-23T02:11:36;15.60;66.60
68691;DHT22;55675;49.588;8.640;2023-03-23T02:14:01;15.60;66.30
68691;DHT22;55675;49.588;8.640;2023-03-23T02:16:36;15.60;66.00
68691;DHT22;55675;49.588;8.640;2023-03-23T02:19:07;15.70;66.10
68691;DHT22;55675;49.588;8.640;2023-03-23T02:21:49;15.70;66.00
68691;DHT22;55675;49.588;8.640;2023-03-23T02:24:26;15.70;66.10
68691;DHT22;55675;49.588;8.640;2023-03-23T02:27:02;15.70;65.30
68691;DHT22;55675;49.588;8.640;2023-03-23T02:29:51;15.70;65.70
68691;DHT22;55675;49.588;8.640;2023-03-23T02:35:11;15.70;65.50
68691;DHT22;55675;49.588;8.640;2023-03-23T02:37:39;15.70;65.50
68691;DHT22;55675;49.588;8.640;2023-03-23T02:40:08;15.70;65.40
68691;DHT22;55675;49.588;8.640;2023-03-23T02:42:36;15.70;65.60
68691;DHT22;55675;49.588;8.640;2023-03-23T02:45:03;15.70;65.60
68691;DHT22;55675;49.588;8.640;2023-03-23T02:47:30;15.70;65.90
68691;DHT22;55675;49.588;8.640;2023-03-23T02:49:56;15.70;66.50
68691;DHT22;55675;49.588;8.640;2023-03-23T02:52:25;15.70;65.50
68691;DHT22;55675;49.588;8.640;2023-03-23T02:54:51;15.70;65.90
68691;DHT22;55675;49.588;8.640;2023-03-23T02:57:17;15.70;66.10
68691;DHT22;55675;49.588;8.640;2023-03-23T02:59:42;15.70;66.20
68691;DHT22;55675;49.588;8.640;2023-03-23T03:04:36;15.60;66.10
68691;DHT22;55675;49.588;8.640;2023-03-23T03:09:36;15.60;65.90
68691;DHT22;55675;49.588;8.640;2023-03-23T03:12:07;15.70;65.60
68691;DHT22;55675;49.588;8.640;2023-03-23T03:14:35;15.70;65.90
68691;DHT22;55675;49.588;8.640;2023-03-23T03:17:04;15.70;66.10
68691;DHT22;55675;49.588;8.640;2023-03-23T03:19:35;15.70;65.90
68691;DHT22;55675;49.588;8.640;2023-03-23T03:22:03;15.70;66.00
68691;DHT22;55675;49.588;8.640;2023-03-23T03:24:30;15.70;66.10
68691;DHT22;55675;49.588;8.640;2023-03-23T03:26:56;15.70;66.10
68691;DHT22;55675;49.588;8.640;2023-03-23T03:29:23;15.70;66.00
68691;DHT22;55675;49.588;8.640;2023-03-23T03:31:50;15.60;66.30
68691;DHT22;55675;49.588;8.640;2023-03-23T03:34:16;15.60;66.40
68691;DHT22;55675;49.588;8.640;2023-03-23T03:36:46;15.60;66.80
68691;DHT22;55675;49.588;8.640;2023-03-23T03:39:12;15.60;66.90
68691;DHT22;55675;49.588;8.640;2023-03-23T03:41:40;15.60;66.80
68691;DHT22;55675;49.588;8.640;2023-03-23T03:44:05;15.60;67.00
68691;DHT22;55675;49.588;8.640;2023-03-23T03:46:32;15.60;67.00
68691;DHT22;55675;49.588;8.640;2023-03-23T03:48:58;15.50;67.00
68691;DHT22;55675;49.588;8.640;2023-03-23T03:51:24;15.50;67.40
68691;DHT22;55675;49.588;8.640;2023-03-23T03:53:50;15.50;67.30
68691;DHT22;55675;49.588;8.640;2023-03-23T03:56:16;15.50;67.30
68691;DHT22;55675;49.588;8.640;2023-03-23T03:58:42;15.50;67.40
68691;DHT22;55675;49.588;8.640;2023-03-23T04:01:08;15.50;67.50
68691;DHT22;55675;49.588;8.640;2023-03-23T04:03:35;15.50;68.50
68691;DHT22;55675;49.588;8.640;2023-03-23T04:06:01;15.50;67.60
68691;DHT22;55675;49.588;8.640;2023-03-23T04:08:27;15.50;67.80
68691;DHT22;55675;49.588;8.640;2023-03-23T04:10:53;15.50;67.50
68691;DHT22;55675;49.588;8.640;2023-03-23T04:13:19;15.50;67.40
68691;DHT22;55675;49.588;8.640;2023-03-23T04:15:45;15.50;68.10
68691;DHT22;55675;49.588;8.640;2023-03-23T04:18:11;15.50;68.30
68691;DHT22;55675;49.588;8.640;2023-03-23T04:20:37;15.50;68.40
68691;DHT22;55675;49.588;8.640;2023-03-23T04:23:02;15.50;68.50
68691;DHT22;55675;49.588;8.640;2023-03-23T04:25:28;15.50;69.00
68691;DHT22;55675;49.588;8.640;2023-03-23T04:27:54;15.50;69.10
68691;DHT22;55675;49.588;8.640;2023-03-23T04:30:21;15.50;70.10
68691;DHT22;55675;49.588;8.640;2023-03-23T04:32:47;15.40;71.10
68691;DHT22;55675;49.588;8.640;2023-03-23T04:35:16;15.40;72.60
68691;DHT22;55675;49.588;8.640;2023-03-23T04:37:41;15.40;72.80
68691;DHT22;55675;49.588;8.640;2023-03-23T04:40:08;15.30;73.30
68691;DHT22;55675;49.588;8.640;2023-03-23T04:42:38;15.30;73.00
68691;DHT22;55675;49.588;8.640;2023-03-23T04:45:05;15.30;73.10
68691;DHT22;55675;49.588;8.640;2023-03-23T04:47:32;15.30;73.40
68691;DHT22;55675;49.588;8.640;2023-03-23T04:49:57;15.30;73.60
68691;DHT22;55675;49.588;8.640;2023-03-23T04:52:27;15.30;74.40
68691;DHT22;55675;49.588;8.640;2023-03-23T04:54:54;15.20;74.20
68691;DHT22;55675;49.588;8.640;2023-03-23T04:57:24;15.20;74.30
68691;DHT22;55675;49.588;8.640;2023-03-23T04:59:53;15.20;75.10
68691;DHT22;55675;49.588;8.640;2023-03-23T05:02:18;15.20;75.00
68691;DHT22;55675;49.588;8.640;2023-03-23T05:04:44;15.10;76.20
68691;DHT22;55675;49.588;8.640;2023-03-23T05:07:10;15.10;76.20
68691;DHT22;55675;49.588;8.640;2023-03-23T05:09:36;15.10;76.70
68691;DHT22;55675;49.588;8.640;2023-03-23T05:12:05;15.10;77.10
68691;DHT22;55675;49.588;8.640;2023-03-23T05:14:31;15.00;77.80
68691;DHT22;55675;49.588;8.640;2023-03-23T05:16:56;15.00;78.10
68691;DHT22;55675;49.588;8.640;2023-03-23T05:19:22;15.00;77.60
68691;DHT22;55675;49.588;8.640;2023-03-23T05:21:47;15.00;78.20
68691;DHT22;55675;49.588;8.640;2023-03-23T05:24:13;14.90;78.10
68691;DHT22;55675;49.588;8.640;2023-03-23T05:26:38;14.90;79.30
68691;DHT22;55675;49.588;8.640;2023-03-23T05:29:04;14.90;79.10
68691;DHT22;55675;49.588;8.640;2023-03-23T05:31:29;14.90;78.90
68691;DHT22;55675;49.588;8.640;2023-03-23T05:33:55;14.90;79.00
68691;DHT22;55675;49.588;8.640;2023-03-23T05:36:21;14.90;79.20
68691;DHT22;55675;49.588;8.640;2023-03-23T05:38:48;14.90;79.00
68691;DHT22;55675;49.588;8.640;2023-03-23T05:41:14;14.90;79.00
68691;DHT22;55675;49.588;8.640;2023-03-23T05:43:40;15.00;79.10
68691;DHT22;55675;49.588;8.640;2023-03-23T05:46:05;15.00;79.70
68691;DHT22;55675;49.588;8.640;2023-03-23T05:48:32;14.90;79.60
68691;DHT22;55675;49.588;8.640;2023-03-23T05:50:58;15.00;79.50
68691;DHT22;55675;49.588;8.640;2023-03-23T05:53:23;15.00;79.50
68691;DHT22;55675;49.588;8.640;2023-03-23T05:55:49;15.00;79.40
68691;DHT22;55675;49.588;8.640;2023-03-23T05:58:14;15.00;80.10
68691;DHT22;55675;49.588;8.640;2023-03-23T06:00:40;15.00;79.30
68691;DHT22;55675;49.588;8.640;2023-03-23T06:03:05;15.10;79.20
68691;DHT22;55675;49.588;8.640;2023-03-23T06:05:31;15.10;79.20
68691;DHT22;55675;49.588;8.640;2023-03-23T06:07:58;15.10;79.20
68691;DHT22;55675;49.588;8.640;2023-03-23T06:10:24;15.10;79.20
68691;DHT22;55675;49.588;8.640;2023-03-23T06:12:50;15.10;79.40
68691;DHT22;55675;49.588;8.640;2023-03-23T06:15:16;15.10;79.40
68691;DHT22;55675;49.588;8.640;2023-03-23T06:17:41;15.10;79.50
68691;DHT22;55675;49.588;8.640;2023-03-23T06:20:07;15.10;79.50
68691;DHT22;55675;49.588;8.640;2023-03-23T06:22:35;15.20;79.70
68691;DHT22;55675;49.588;8.640;2023-03-23T06:25:00;15.20;79.80
68691;DHT22;55675;49.588;8.640;2023-03-23T06:27:26;15.10;79.70
68691;DHT22;55675;49.588;8.640;2023-03-23T06:29:52;15.20;78.90
68691;DHT22;55675;49.588;8.640;2023-03-23T06:32:17;15.20;78.80
68691;DHT22;55675;49.588;8.640;2023-03-23T06:34:43;15.20;78.70
68691;DHT22;55675;49.588;8.640;2023-03-23T06:37:10;15.20;78.90
68691;DHT22;55675;49.588;8.640;2023-03-23T06:39:36;15.30;78.80
68691;DHT22;55675;49.588;8.640;2023-03-23T06:42:03;15.30;78.60
68691;DHT22;55675;49.588;8.640;2023-03-23T06:44:29;15.40;78.40
68691;DHT22;55675;49.588;8.640;2023-03-23T06:46:54;15.40;78.20
68691;DHT22;55675;49.588;8.640;2023-03-23T06:49:20;15.50;78.10
68691;DHT22;55675;49.588;8.640;2023-03-23T06:51:45;15.50;77.90
68691;DHT22;55675;49.588;8.640;2023-03-23T06:54:11;15.50;77.40
68691;DHT22;55675;49.588;8.640;2023-03-23T06:56:36;15.50;77.40
68691;DHT22;55675;49.588;8.640;2023-03-23T06:59:02;15.60;77.10
68691;DHT22;55675;49.588;8.640;2023-03-23T07:01:28;15.60;77.00
68691;DHT22;55675;49.588;8.640;2023-03-23T07:03:54;15.60;77.10
68691;DHT22;55675;49.588;8.640;2023-03-23T07:06:21;15.60;77.20
68691;DHT22;55675;49.588;8.640;2023-03-23T07:08:46;15.60;76.10
68691;DHT22;55675;49.588;8.640;2023-03-23T07:11:12;15.60;76.00
68691;DHT22;55675;49.588;8.640;2023-03-23T07:13:38;15.60;76.30
68691;DHT22;55675;49.588;8.640;2023-03-23T07:16:06;15.60;76.60
68691;DHT22;55675;49.588;8.640;2023-03-23T07:18:32;15.60;76.70
68691;DHT22;55675;49.588;8.640;2023-03-23T07:20:58;15.60;76.80
68691;DHT22;55675;49.588;8.640;2023-03-23T07:23:23;15.60;76.80
68691;DHT22;55675;49.588;8.640;2023-03-23T07:25:49;15.60;77.00
68691;DHT22;55675;49.588;8.640;2023-03-23T07:28:15;15.70;77.10
68691;DHT22;55675;49.588;8.640;2023-03-23T07:30:41;15.70;77.60
68691;DHT22;55675;49.588;8.640;2023-03-23T07:33:07;15.70;77.70
68691;DHT22;55675;49.588;8.640;2023-03-23T07:35:33;15.70;77.70
68691;DHT22;55675;49.588;8.640;2023-03-23T07:37:58;15.70;76.90
68691;DHT22;55675;49.588;8.640;2023-03-23T07:40:24;15.70;76.10
68691;DHT22;55675;49.588;8.640;2023-03-23T07:42:51;15.70;76.30
68691;DHT22;55675;49.588;8.640;2023-03-23T07:45:17;15.70;77.20
68691;DHT22;55675;49.588;8.640;2023-03-23T07:47:43;15.70;76.60
68691;DHT22;55675;49.588;8.640;2023-03-23T07:50:08;15.80;76.40
68691;DHT22;55675;49.588;8.640;2023-03-23T07:52:35;15.70;76.00
68691;DHT22;55675;49.588;8.640;2023-03-23T07:55:01;15.70;76.20
68691;DHT22;55675;49.588;8.640;2023-03-23T07:57:27;15.70;76.50
68691;DHT22;55675;49.588;8.640;2023-03-23T07:59:52;15.70;77.20
68691;DHT22;55675;49.588;8.640;2023-03-23T08:02:18;15.60;76.90
68691;DHT22;55675;49.588;8.640;2023-03-23T08:04:44;15.60;76.60
68691;DHT22;55675;49.588;8.640;2023-03-23T08:07:10;15.60;78.00
68691;DHT22;55675;49.588;8.640;2023-03-23T08:09:37;15.70;77.90
68691;DHT22;55675;49.588;8.640;2023-03-23T08:12:04;15.70;77.80
68691;DHT22;55675;49.588;8.640;2023-03-23T08:14:29;15.60;78.00
68691;DHT22;55675;49.588;8.640;2023-03-23T08:16:55;15.60;78.70
68691;DHT22;55675;49.588;8.640;2023-03-23T08:19:21;15.60;79.20
68691;DHT22;55675;49.588;8.640;2023-03-23T08:21:47;15.60;79.40
68691;DHT22;55675;49.588;8.640;2023-03-23T08:24:13;15.70;79.70
68691;DHT22;55675;49.588;8.640;2023-03-23T08:26:39;15.70;79.70
68691;DHT22;55675;49.588;8.640;2023-03-23T08:29:05;15.70;79.30
68691;DHT22;55675;49.588;8.640;2023-03-23T08:31:31;15.70;79.90
68691;DHT22;55675;49.588;8.640;2023-03-23T08:33:59;15.70;79.90
68691;DHT22;55675;49.588;8.640;2023-03-23T08:36:26;15.60;80.10
68691;DHT22;55675;49.588;8.640;2023-03-23T08:38:51;15.70;80.20
68691;DHT22;55675;49.588;8.640;2023-03-23T08:41:18;15.70;80.20
68691;DHT22;55675;49.588;8.640;2023-03-23T08:43:43;15.70;80.40
68691;DHT22;55675;49.588;8.640;2023-03-23T08:46:09;15.70;80.50
68691;DHT22;55675;49.588;8.640;2023-03-23T08:48:35;15.70;80.90
68691;DHT22;55675;49.588;8.640;2023-03-23T08:51:02;15.70;80.50
68691;DHT22;55675;49.588;8.640;2023-03-23T08:53:28;15.70;80.70
68691;DHT22;55675;49.588;8.640;2023-03-23T08:55:56;15.70;80.50
68691;DHT22;55675;49.588;8.640;2023-03-23T08:58:22;15.70;80.70
68691;DHT22;55675;49.588;8.640;2023-03-23T09:00:48;15.70;81.40
68691;DHT22;55675;49.588;8.640;2023-03-23T09:03:13;15.70;81.40
68691;DHT22;55675;49.588;8.640;2023-03-23T09:05:39;15.80;82.00
68691;DHT22;55675;49.588;8.640;2023-03-23T09:08:11;15.80;81.70
68691;DHT22;55675;49.588;8.640;2023-03-23T09:10:37;15.80;82.00
68691;DHT22;55675;49.588;8.640;2023-03-23T09:13:04;15.80;81.60
68691;DHT22;55675;49.588;8.640;2023-03-23T09:15:30;15.70;81.40
68691;DHT22;55675;49.588;8.640;2023-03-23T09:17:56;15.80;81.80
68691;DHT22;55675;49.588;8.640;2023-03-23T09:20:23;15.90;82.00
68691;DHT22;55675;49.588;8.640;2023-03-23T09:22:51;16.00;81.90
68691;DHT22;55675;49.588;8.640;2023-03-23T09:25:18;16.10;82.20
68691;DHT22;55675;49.588;8.640;2023-03-23T09:27:50;16.20;82.30
68691;DHT22;55675;49.588;8.640;2023-03-23T09:30:22;16.20;81.70
68691;DHT22;55675;49.588;8.640;2023-03-23T09:32:48;16.30;81.60
68691;DHT22;55675;49.588;8.640;2023-03-23T09:35:14;16.40;79.20
68691;DHT22;55675;49.588;8.640;2023-03-23T09:37:41;16.50;79.60
68691;DHT22;55675;49.588;8.640;2023-03-23T09:40:10;16.60;78.40
68691;DHT22;55675;49.588;8.640;2023-03-23T09:43:00;16.60;77.40
68691;DHT22;55675;49.588;8.640;2023-03-23T09:45:43;16.70;76.90
68691;DHT22;55675;49.588;8.640;2023-03-23T09:50:57;16.90;76.10
68691;DHT22;55675;49.588;8.640;2023-03-23T09:53:34;17.10;74.30
68691;DHT22;55675;49.588;8.640;2023-03-23T09:56:03;17.20;73.20
68691;DHT22;55675;49.588;8.640;2023-03-23T09:58:33;17.20;70.00
68691;DHT22;55675;49.588;8.640;2023-03-23T10:01:34;17.10;70.10
68691;DHT22;55675;49.588;8.640;2023-03-23T10:03:57;16.90;70.80
68691;DHT22;55675;49.588;8.640;2023-03-23T10:06:24;16.80;72.80
68691;DHT22;55675;49.588;8.640;2023-03-23T10:08:50;16.60;73.80
68691;DHT22;55675;49.588;8.640;2023-03-23T10:13:55;16.40;75.40
68691;DHT22;55675;49.588;8.640;2023-03-23T10:16:29;16.40;75.70
68691;DHT22;55675;49.588;8.640;2023-03-23T10:21:28;16.40;76.10
68691;DHT22;55675;49.588;8.640;2023-03-23T10:23:59;16.40;76.60
68691;DHT22;55675;49.588;8.640;2023-03-23T10:29:08;16.50;77.40
68691;DHT22;55675;49.588;8.640;2023-03-23T10:31:39;16.60;77.30
68691;DHT22;55675;49.588;8.640;2023-03-23T10:34:10;16.80;76.50
68691;DHT22;55675;49.588;8.640;2023-03-23T10:36:37;16.90;75.90
68691;DHT22;55675;49.588;8.640;2023-03-23T10:39:16;17.00;76.40
68691;DHT22;55675;49.588;8.640;2023-03-23T10:41:42;17.20;75.20
68691;DHT22;55675;49.588;8.640;2023-03-23T10:44:09;17.30;75.70
68691;DHT22;55675;49.588;8.640;2023-03-23T10:49:05;17.50;74.20
68691;DHT22;55675;49.588;8.640;2023-03-23T10:51:37;17.70;73.90
68691;DHT22;55675;49.588;8.640;2023-03-23T10:54:04;17.80;73.00
68691;DHT22;55675;49.588;8.640;2023-03-23T10:56:37;17.80;72.20
68691;DHT22;55675;49.588;8.640;2023-03-23T11:01:38;17.70;72.40
68691;DHT22;55675;49.588;8.640;2023-03-23T11:04:13;17.60;71.80
68691;DHT22;55675;49.588;8.640;2023-03-23T11:06:42;17.50;72.50
68691;DHT22;55675;49.588;8.640;2023-03-23T11:09:10;17.30;72.30
68691;DHT22;55675;49.588;8.640;2023-03-23T11:11:38;17.20;72.50
68691;DHT22;55675;49.588;8.640;2023-03-23T11:16:43;17.20;72.00
68691;DHT22;55675;49.588;8.640;2023-03-23T11:19:13;17.10;73.40
68691;DHT22;55675;49.588;8.640;2023-03-23T11:21:39;17.00;73.10
68691;DHT22;55675;49.588;8.640;2023-03-23T11:24:05;16.90;74.30
68691;DHT22;55675;49.588;8.640;2023-03-23T11:26:31;16.80;74.90
68691;DHT22;55675;49.588;8.640;2023-03-23T11:29:12;16.80;76.00
68691;DHT22;55675;49.588;8.640;2023-03-23T11:31:39;16.60;76.60
68691;DHT22;55675;49.588;8.640;2023-03-23T11:36:35;16.60;78.30
68691;DHT22;55675;49.588;8.640;2023-03-23T11:39:02;16.50;79.00
68691;DHT22;55675;49.588;8.640;2023-03-23T11:41:33;16.40;80.10
68691;DHT22;55675;49.588;8.640;2023-03-23T11:44:03;16.30;80.90
68691;DHT22;55675;49.588;8.640;2023-03-23T11:46:30;16.40;81.30
68691;DHT22;55675;49.588;8.640;2023-03-23T11:49:01;16.40;81.30
68691;DHT22;55675;49.588;8.640;2023-03-23T11:51:38;16.40;81.30
68691;DHT22;55675;49.588;8.640;2023-03-23T11:54:10;16.40;81.20
68691;DHT22;55675;49.588;8.640;2023-03-23T11:56:39;16.50;81.80
68691;DHT22;55675;49.588;8.640;2023-03-23T11:59:16;16.50;81.20
68691;DHT22;55675;49.588;8.640;2023-03-23T12:01:47;16.50;81.30
68691;DHT22;55675;49.588;8.640;2023-03-23T12:06:48;16.70;81.50
68691;DHT22;55675;49.588;8.640;2023-03-23T12:09:21;16.70;82.10
68691;DHT22;55675;49.588;8.640;2023-03-23T12:12:02;16.70;81.50
68691;DHT22;55675;49.588;8.640;2023-03-23T12:19:47;16.80;81.30
68691;DHT22;55675;49.588;8.640;2023-03-23T12:27:33;16.80;80.30
68691;DHT22;55675;49.588;8.640;2023-03-23T12:30:21;16.70;80.30
68691;DHT22;55675;49.588;8.640;2023-03-23T12:32:56;16.70;80.20
68691;DHT22;55675;49.588;8.640;2023-03-23T12:35:34;16.80;80.30
68691;DHT22;55675;49.588;8.640;2023-03-23T12:46:10;17.00;80.00
68691;DHT22;55675;49.588;8.640;2023-03-23T12:48:40;17.00;80.00
68691;DHT22;55675;49.588;8.640;2023-03-23T12:51:11;17.10;79.90
68691;DHT22;55675;49.588;8.640;2023-03-23T12:53:41;17.20;79.70
68691;DHT22;55675;49.588;8.640;2023-03-23T12:58:39;17.50;77.70
68691;DHT22;55675;49.588;8.640;2023-03-23T13:01:11;17.70;77.60
68691;DHT22;55675;49.588;8.640;2023-03-23T13:03:47;17.90;76.30
68691;DHT22;55675;49.588;8.640;2023-03-23T13:08:44;18.30;74.20
68691;DHT22;55675;49.588;8.640;2023-03-23T13:11:24;18.30;74.40
68691;DHT22;55675;49.588;8.640;2023-03-23T13:13:53;18.50;74.20
68691;DHT22;55675;49.588;8.640;2023-03-23T13:21:31;18.80;72.30
68691;DHT22;55675;49.588;8.640;2023-03-23T13:24:01;18.70;72.50
68691;DHT22;55675;49.588;8.640;2023-03-23T13:26:29;18.70;72.00
68691;DHT22;55675;49.588;8.640;2023-03-23T13:31:22;18.30;73.60
68691;DHT22;55675;49.588;8.640;2023-03-23T13:33:57;18.10;73.60
68691;DHT22;55675;49.588;8.640;2023-03-23T13:36:37;18.00;74.90
68691;DHT22;55675;49.588;8.640;2023-03-23T13:39:15;17.80;75.70
68691;DHT22;55675;49.588;8.640;2023-03-23T13:41:45;17.70;75.60
68691;DHT22;55675;49.588;8.640;2023-03-23T13:44:19;17.60;76.50
68691;DHT22;55675;49.588;8.640;2023-03-23T13:47:04;17.50;76.90
68691;DHT22;55675;49.588;8.640;2023-03-23T13:49:31;17.50;77.10
68691;DHT22;55675;49.588;8.640;2023-03-23T13:51:59;17.40;77.30
68691;DHT22;55675;49.588;8.640;2023-03-23T13:54:30;17.40;77.70
68691;DHT22;55675;49.588;8.640;2023-03-23T13:56:59;17.40;77.70
68691;DHT22;55675;49.588;8.640;2023-03-23T14:01:52;17.50;76.30
68691;DHT22;55675;49.588;8.640;2023-03-23T14:04:18;17.50;76.70
68691;DHT22;55675;49.588;8.640;2023-03-23T14:06:45;17.60;77.40
68691;DHT22;55675;49.588;8.640;2023-03-23T14:09:27;17.70;76.60
68691;DHT22;55675;49.588;8.640;2023-03-23T14:11:58;17.70;76.50
68691;DHT22;55675;49.588;8.640;2023-03-23T14:14:26;17.80;76.20
68691;DHT22;55675;49.588;8.640;2023-03-23T14:16:53;17.80;76.00
68691;DHT22;55675;49.588;8.640;2023-03-23T14:19:30;17.80;75.70
68691;DHT22;55675;49.588;8.640;2023-03-23T14:21:59;17.70;75.60
68691;DHT22;55675;49.588;8.640;2023-03-23T14:24:32;17.80;75.80
68691;DHT22;55675;49.588;8.640;2023-03-23T14:29:33;17.80;73.80
68691;DHT22;55675;49.588;8.640;2023-03-23T14:31:58;17.70;74.20
68691;DHT22;55675;49.588;8.640;2023-03-23T14:34:26;17.70;74.80
68691;DHT22;55675;49.588;8.640;2023-03-23T14:36:53;17.70;74.90
68691;DHT22;55675;49.588;8.640;2023-03-23T14:39:25;17.80;75.30
68691;DHT22;55675;49.588;8.640;2023-03-23T14:41:53;17.90;75.40
68691;DHT22;55675;49.588;8.640;2023-03-23T14:44:23;17.90;75.20
68691;DHT22;55675;49.588;8.640;2023-03-23T14:46:49;17.90;75.20
68691;DHT22;55675;49.588;8.640;2023-03-23T14:49:15;17.90;75.30
68691;DHT22;55675;49.588;8.640;2023-03-23T14:51:51;17.90;75.00
68691;DHT22;55675;49.588;8.640;2023-03-23T14:54:24;17.80;75.00
68691;DHT22;55675;49.588;8.640;2023-03-23T14:56:50;17.70;75.10
68691;DHT22;55675;49.588;8.640;2023-03-23T14:59:16;17.60;75.60
68691;DHT22;55675;49.588;8.640;2023-03-23T15:01:41;17.60;76.40
68691;DHT22;55675;49.588;8.640;2023-03-23T15:04:19;17.50;76.30
68691;DHT22;55675;49.588;8.640;2023-03-23T15:06:49;17.50;76.30
68691;DHT22;55675;49.588;8.640;2023-03-23T15:09:18;17.40;76.60
68691;DHT22;55675;49.588;8.640;2023-03-23T15:11:49;17.30;77.10
68691;DHT22;55675;49.588;8.640;2023-03-23T15:14:17;17.20;77.50
68691;DHT22;55675;49.588;8.640;2023-03-23T15:16:53;17.20;77.40
68691;DHT22;55675;49.588;8.640;2023-03-23T15:19:21;17.10;76.60
68691;DHT22;55675;49.588;8.640;2023-03-23T15:21:49;17.00;76.50
68691;DHT22;55675;49.588;8.640;2023-03-23T15:24:25;16.90;75.50
68691;DHT22;55675;49.588;8.640;2023-03-23T15:26:51;16.80;76.10
68691;DHT22;55675;49.588;8.640;2023-03-23T15:29:18;16.80;76.40
68691;DHT22;55675;49.588;8.640;2023-03-23T15:31:45;16.80;76.20
68691;DHT22;55675;49.588;8.640;2023-03-23T15:34:13;16.80;76.30
68691;DHT22;55675;49.588;8.640;2023-03-23T15:36:40;16.80;76.50
68691;DHT22;55675;49.588;8.640;2023-03-23T15:39:06;16.80;76.20
68691;DHT22;55675;49.588;8.640;2023-03-23T15:41:34;16.90;76.50
68691;DHT22;55675;49.588;8.640;2023-03-23T15:44:11;16.90;76.30
68691;DHT22;55675;49.588;8.640;2023-03-23T15:46:47;16.90;76.80
68691;DHT22;55675;49.588;8.640;2023-03-23T15:49:12;17.00;77.30
68691;DHT22;55675;49.588;8.640;2023-03-23T15:51:41;17.10;77.10
68691;DHT22;55675;49.588;8.640;2023-03-23T15:54:08;17.20;77.20
68691;DHT22;55675;49.588;8.640;2023-03-23T15:56:34;17.30;76.00
68691;DHT22;55675;49.588;8.640;2023-03-23T15:59:00;17.30;75.80
68691;DHT22;55675;49.588;8.640;2023-03-23T16:01:26;17.30;75.50
68691;DHT22;55675;49.588;8.640;2023-03-23T16:03:53;17.20;75.30
68691;DHT22;55675;49.588;8.640;2023-03-23T16:06:19;17.20;75.40
68691;DHT22;55675;49.588;8.640;2023-03-23T16:08:45;17.10;75.60
68691;DHT22;55675;49.588;8.640;2023-03-23T16:11:11;17.00;76.50
68691;DHT22;55675;49.588;8.640;2023-03-23T16:13:37;17.00;76.40
68691;DHT22;55675;49.588;8.640;2023-03-23T16:16:03;16.90;77.40
68691;DHT22;55675;49.588;8.640;2023-03-23T16:18:29;16.90;77.20
68691;DHT22;55675;49.588;8.640;2023-03-23T16:20:55;16.80;77.30
68691;DHT22;55675;49.588;8.640;2023-03-23T16:23:21;16.80;77.50
68691;DHT22;55675;49.588;8.640;2023-03-23T16:25:47;16.70;78.00
68691;DHT22;55675;49.588;8.640;2023-03-23T16:28:12;16.70;78.40
68691;DHT22;55675;49.588;8.640;2023-03-23T16:30:38;16.70;78.70
68691;DHT22;55675;49.588;8.640;2023-03-23T16:33:04;16.70;78.90
68691;DHT22;55675;49.588;8.640;2023-03-23T16:35:29;16.70;79.10
68691;DHT22;55675;49.588;8.640;2023-03-23T16:37:56;16.70;79.20
68691;DHT22;55675;49.588;8.640;2023-03-23T16:40:22;16.60;79.40
68691;DHT22;55675;49.588;8.640;2023-03-23T16:42:47;16.60;79.40